sensor_id;sensor_type;location;lat;lon;timestamp;P1;durP1;ratioP1;P2;durP2;ratioP2
71836;SDS011;59686;51.716;7.016;2023-05-07T00:01:59;3.45;;;2.38;;
71836;SDS011;59686;51.716;7.016;2023-05-07T00:04:25;3.50;;;2.22;;
71836;SDS011;59686;51.716;7.016;2023-05-07T00:06:51;2.58;;;2.22;;
71836;SDS011;59686;51.716;7.016;2023-05-07T00:09:17;2.67;;;2.28;;
71836;SDS011;59686;51.716;7.016;2023-05-07T00:11:42;2.75;;;2.42;;
71836;SDS011;59686;51.716;7.016;2023-05-07T00:14:08;2.85;;;2.58;;
71836;SDS011;59686;51.716;7.016;2023-05-07T00:16:42;4.28;;;2.72;;
71836;SDS011;59686;51.716;7.016;2023-05-07T00:19:08;2.78;;;2.15;;
71836;SDS011;59686;51.716;7.016;2023-05-07T00:21:33;3.10;;;2.30;;
71836;SDS011;59686;51.716;7.016;2023-05-07T00:23:59;2.85;;;2.45;;
71836;SDS011;59686;51.716;7.016;2023-05-07T00:26:25;2.75;;;2.30;;
71836;SDS011;59686;51.716;7.016;2023-05-07T00:28:50;2.78;;;2.47;;
71836;SDS011;59686;51.716;7.016;2023-05-07T00:31:16;4.00;;;2.42;;
71836;SDS011;59686;51.716;7.016;2023-05-07T00:33:41;2.25;;;2.05;;
71836;SDS011;59686;51.716;7.016;2023-05-07T00:36:07;3.22;;;2.33;;
71836;SDS011;59686;51.716;7.016;2023-05-07T00:38:33;2.80;;;2.15;;
71836;SDS011;59686;51.716;7.016;2023-05-07T00:40:58;3.10;;;2.33;;
71836;SDS011;59686;51.716;7.016;2023-05-07T00:43:24;2.65;;;2.45;;
71836;SDS011;59686;51.716;7.016;2023-05-07T00:45:50;2.78;;;2.30;;
71836;SDS011;59686;51.716;7.016;2023-05-07T00:48:16;2.97;;;2.15;;
71836;SDS011;59686;51.716;7.016;2023-05-07T00:50:42;3.13;;;2.60;;
71836;SDS011;59686;51.716;7.016;2023-05-07T00:53:08;2.42;;;2.05;;
71836;SDS011;59686;51.716;7.016;2023-05-07T00:55:34;2.42;;;2.22;;
71836;SDS011;59686;51.716;7.016;2023-05-07T00:58:00;2.63;;;2.42;;
71836;SDS011;59686;51.716;7.016;2023-05-07T01:00:26;3.00;;;2.35;;
71836;SDS011;59686;51.716;7.016;2023-05-07T01:02:52;2.58;;;2.22;;
71836;SDS011;59686;51.716;7.016;2023-05-07T01:05:18;2.25;;;2.05;;
71836;SDS011;59686;51.716;7.016;2023-05-07T01:07:45;2.28;;;2.05;;
71836;SDS011;59686;51.716;7.016;2023-05-07T01:10:12;2.47;;;2.28;;
71836;SDS011;59686;51.716;7.016;2023-05-07T01:12:39;2.83;;;2.38;;
71836;SDS011;59686;51.716;7.016;2023-05-07T01:15:06;3.05;;;2.35;;
71836;SDS011;59686;51.716;7.016;2023-05-07T01:17:34;2.38;;;2.15;;
71836;SDS011;59686;51.716;7.016;2023-05-07T01:20:01;3.05;;;2.50;;
71836;SDS011;59686;51.716;7.016;2023-05-07T01:22:31;2.85;;;2.40;;
71836;SDS011;59686;51.716;7.016;2023-05-07T01:25:03;2.63;;;2.42;;
71836;SDS011;59686;51.716;7.016;2023-05-07T01:27:29;3.30;;;2.67;;
71836;SDS011;59686;51.716;7.016;2023-05-07T01:29:55;3.35;;;2.80;;
71836;SDS011;59686;51.716;7.016;2023-05-07T01:32:24;3.28;;;2.75;;
71836;SDS011;59686;51.716;7.016;2023-05-07T01:34:54;2.72;;;2.53;;
71836;SDS011;59686;51.716;7.016;2023-05-07T01:37:20;2.80;;;2.60;;
71836;SDS011;59686;51.716;7.016;2023-05-07T01:39:47;2.97;;;2.67;;
71836;SDS011;59686;51.716;7.016;2023-05-07T01:42:13;3.30;;;2.80;;
71836;SDS011;59686;51.716;7.016;2023-05-07T01:44:39;3.17;;;2.88;;
71836;SDS011;59686;51.716;7.016;2023-05-07T01:47:06;3.67;;;2.60;;
71836;SDS011;59686;51.716;7.016;2023-05-07T01:49:32;4.78;;;2.90;;
71836;SDS011;59686;51.716;7.016;2023-05-07T01:51:58;3.50;;;3.17;;
71836;SDS011;59686;51.716;7.016;2023-05-07T01:54:27;3.28;;;2.97;;
71836;SDS011;59686;51.716;7.016;2023-05-07T01:56:53;4.25;;;2.60;;
71836;SDS011;59686;51.716;7.016;2023-05-07T01:59:21;3.20;;;2.90;;
71836;SDS011;59686;51.716;7.016;2023-05-07T02:01:47;4.15;;;3.20;;
71836;SDS011;59686;51.716;7.016;2023-05-07T02:04:12;3.38;;;2.90;;
71836;SDS011;59686;51.716;7.016;2023-05-07T02:06:38;3.35;;;3.05;;
71836;SDS011;59686;51.716;7.016;2023-05-07T02:09:04;3.75;;;3.03;;
71836;SDS011;59686;51.716;7.016;2023-05-07T02:11:30;3.97;;;3.17;;
71836;SDS011;59686;51.716;7.016;2023-05-07T02:13:55;3.22;;;2.92;;
71836;SDS011;59686;51.716;7.016;2023-05-07T02:16:21;4.07;;;3.17;;
71836;SDS011;59686;51.716;7.016;2023-05-07T02:18:48;3.15;;;2.90;;
71836;SDS011;59686;51.716;7.016;2023-05-07T02:21:14;3.50;;;3.20;;
71836;SDS011;59686;51.716;7.016;2023-05-07T02:23:40;3.67;;;3.10;;
71836;SDS011;59686;51.716;7.016;2023-05-07T02:26:06;3.50;;;3.20;;
71836;SDS011;59686;51.716;7.016;2023-05-07T02:28:31;4.15;;;3.05;;
71836;SDS011;59686;51.716;7.016;2023-05-07T02:31:00;3.50;;;3.20;;
71836;SDS011;59686;51.716;7.016;2023-05-07T02:33:27;3.70;;;3.38;;
71836;SDS011;59686;51.716;7.016;2023-05-07T02:35:53;3.30;;;3.00;;
71836;SDS011;59686;51.716;7.016;2023-05-07T02:38:32;3.20;;;2.90;;
71836;SDS011;59686;51.716;7.016;2023-05-07T02:40:58;5.72;;;3.28;;
71836;SDS011;59686;51.716;7.016;2023-05-07T02:43:23;4.57;;;3.10;;
71836;SDS011;59686;51.716;7.016;2023-05-07T02:45:49;3.20;;;2.85;;
71836;SDS011;59686;51.716;7.016;2023-05-07T02:48:25;3.50;;;3.20;;
71836;SDS011;59686;51.716;7.016;2023-05-07T02:50:50;3.55;;;2.97;;
71836;SDS011;59686;51.716;7.016;2023-05-07T02:53:16;3.60;;;3.30;;
71836;SDS011;59686;51.716;7.016;2023-05-07T02:55:42;3.58;;;3.15;;
71836;SDS011;59686;51.716;7.016;2023-05-07T02:58:07;3.38;;;2.95;;
71836;SDS011;59686;51.716;7.016;2023-05-07T03:00:33;3.10;;;2.80;;
71836;SDS011;59686;51.716;7.016;2023-05-07T03:02:59;3.90;;;3.13;;
71836;SDS011;59686;51.716;7.016;2023-05-07T03:05:24;3.13;;;2.83;;
71836;SDS011;59686;51.716;7.016;2023-05-07T03:07:50;3.50;;;3.17;;
71836;SDS011;59686;51.716;7.016;2023-05-07T03:10:16;3.80;;;3.50;;
71836;SDS011;59686;51.716;7.016;2023-05-07T03:12:41;3.47;;;3.13;;
71836;SDS011;59686;51.716;7.016;2023-05-07T03:15:07;3.60;;;3.30;;
71836;SDS011;59686;51.716;7.016;2023-05-07T03:17:33;3.85;;;3.05;;
71836;SDS011;59686;51.716;7.016;2023-05-07T03:19:59;5.15;;;3.30;;
71836;SDS011;59686;51.716;7.016;2023-05-07T03:22:25;3.90;;;3.03;;
71836;SDS011;59686;51.716;7.016;2023-05-07T03:24:50;3.58;;;3.28;;
71836;SDS011;59686;51.716;7.016;2023-05-07T03:27:16;3.17;;;2.88;;
71836;SDS011;59686;51.716;7.016;2023-05-07T03:29:42;3.45;;;2.90;;
71836;SDS011;59686;51.716;7.016;2023-05-07T03:32:07;3.60;;;3.30;;
71836;SDS011;59686;51.716;7.016;2023-05-07T03:34:33;3.58;;;3.25;;
71836;SDS011;59686;51.716;7.016;2023-05-07T03:36:58;3.30;;;3.00;;
71836;SDS011;59686;51.716;7.016;2023-05-07T03:39:25;3.80;;;3.20;;
71836;SDS011;59686;51.716;7.016;2023-05-07T03:41:50;3.33;;;3.03;;
71836;SDS011;59686;51.716;7.016;2023-05-07T03:44:16;3.45;;;3.15;;
71836;SDS011;59686;51.716;7.016;2023-05-07T03:46:42;2.75;;;2.50;;
71836;SDS011;59686;51.716;7.016;2023-05-07T03:49:07;3.08;;;2.72;;
71836;SDS011;59686;51.716;7.016;2023-05-07T03:51:33;3.20;;;2.90;;
71836;SDS011;59686;51.716;7.016;2023-05-07T03:53:58;4.50;;;3.25;;
71836;SDS011;59686;51.716;7.016;2023-05-07T03:56:24;3.92;;;3.35;;
71836;SDS011;59686;51.716;7.016;2023-05-07T03:58:51;4.28;;;3.10;;
71836;SDS011;59686;51.716;7.016;2023-05-07T04:01:17;3.50;;;3.20;;
71836;SDS011;59686;51.716;7.016;2023-05-07T04:03:43;3.60;;;3.30;;
71836;SDS011;59686;51.716;7.016;2023-05-07T04:06:08;3.35;;;3.05;;
71836;SDS011;59686;51.716;7.016;2023-05-07T04:08:34;3.63;;;2.95;;
71836;SDS011;59686;51.716;7.016;2023-05-07T04:11:00;3.55;;;3.25;;
71836;SDS011;59686;51.716;7.016;2023-05-07T04:13:25;3.15;;;2.85;;
71836;SDS011;59686;51.716;7.016;2023-05-07T04:15:52;3.65;;;3.17;;
71836;SDS011;59686;51.716;7.016;2023-05-07T04:18:18;3.25;;;2.92;;
71836;SDS011;59686;51.716;7.016;2023-05-07T04:20:43;3.20;;;2.90;;
71836;SDS011;59686;51.716;7.016;2023-05-07T04:23:09;3.90;;;3.20;;
71836;SDS011;59686;51.716;7.016;2023-05-07T04:25:35;3.88;;;3.55;;
71836;SDS011;59686;51.716;7.016;2023-05-07T04:28:01;3.30;;;3.00;;
71836;SDS011;59686;51.716;7.016;2023-05-07T04:30:26;3.97;;;3.22;;
71836;SDS011;59686;51.716;7.016;2023-05-07T04:32:52;3.28;;;2.97;;
71836;SDS011;59686;51.716;7.016;2023-05-07T04:35:18;4.28;;;3.22;;
71836;SDS011;59686;51.716;7.016;2023-05-07T04:37:44;3.60;;;3.25;;
71836;SDS011;59686;51.716;7.016;2023-05-07T04:40:09;4.95;;;3.20;;
71836;SDS011;59686;51.716;7.016;2023-05-07T04:42:35;3.72;;;3.17;;
71836;SDS011;59686;51.716;7.016;2023-05-07T04:45:01;3.40;;;3.10;;
71836;SDS011;59686;51.716;7.016;2023-05-07T04:47:27;3.72;;;3.13;;
71836;SDS011;59686;51.716;7.016;2023-05-07T04:49:53;3.67;;;3.22;;
71836;SDS011;59686;51.716;7.016;2023-05-07T04:52:19;3.60;;;3.17;;
71836;SDS011;59686;51.716;7.016;2023-05-07T04:54:45;3.20;;;2.90;;
71836;SDS011;59686;51.716;7.016;2023-05-07T04:57:12;4.82;;;3.80;;
71836;SDS011;59686;51.716;7.016;2023-05-07T04:59:37;3.30;;;3.00;;
71836;SDS011;59686;51.716;7.016;2023-05-07T05:02:03;3.50;;;3.20;;
71836;SDS011;59686;51.716;7.016;2023-05-07T05:04:29;3.58;;;3.28;;
71836;SDS011;59686;51.716;7.016;2023-05-07T05:06:55;4.10;;;3.33;;
71836;SDS011;59686;51.716;7.016;2023-05-07T05:09:21;3.42;;;3.10;;
71836;SDS011;59686;51.716;7.016;2023-05-07T05:11:46;4.32;;;3.47;;
71836;SDS011;59686;51.716;7.016;2023-05-07T05:14:13;3.78;;;3.08;;
71836;SDS011;59686;51.716;7.016;2023-05-07T05:16:39;3.88;;;3.05;;
71836;SDS011;59686;51.716;7.016;2023-05-07T05:19:05;3.63;;;3.00;;
71836;SDS011;59686;51.716;7.016;2023-05-07T05:21:31;3.88;;;3.30;;
71836;SDS011;59686;51.716;7.016;2023-05-07T05:23:56;3.40;;;3.10;;
71836;SDS011;59686;51.716;7.016;2023-05-07T05:26:23;3.70;;;3.40;;
71836;SDS011;59686;51.716;7.016;2023-05-07T05:28:48;3.40;;;3.10;;
71836;SDS011;59686;51.716;7.016;2023-05-07T05:31:15;4.10;;;3.70;;
71836;SDS011;59686;51.716;7.016;2023-05-07T05:33:41;3.75;;;3.35;;
71836;SDS011;59686;51.716;7.016;2023-05-07T05:36:11;4.22;;;3.65;;
71836;SDS011;59686;51.716;7.016;2023-05-07T05:38:38;3.35;;;2.95;;
71836;SDS011;59686;51.716;7.016;2023-05-07T05:41:05;4.97;;;3.67;;
71836;SDS011;59686;51.716;7.016;2023-05-07T05:43:31;3.92;;;3.45;;
71836;SDS011;59686;51.716;7.016;2023-05-07T05:45:56;4.13;;;3.72;;
71836;SDS011;59686;51.716;7.016;2023-05-07T05:48:22;4.85;;;3.58;;
71836;SDS011;59686;51.716;7.016;2023-05-07T05:50:48;4.15;;;3.75;;
71836;SDS011;59686;51.716;7.016;2023-05-07T05:53:21;4.40;;;3.45;;
71836;SDS011;59686;51.716;7.016;2023-05-07T05:55:47;4.18;;;3.78;;
71836;SDS011;59686;51.716;7.016;2023-05-07T05:58:13;4.00;;;3.58;;
71836;SDS011;59686;51.716;7.016;2023-05-07T06:00:50;3.88;;;3.53;;
71836;SDS011;59686;51.716;7.016;2023-05-07T06:03:17;4.68;;;4.07;;
71836;SDS011;59686;51.716;7.016;2023-05-07T06:05:43;4.57;;;4.10;;
71836;SDS011;59686;51.716;7.016;2023-05-07T06:08:11;4.63;;;4.15;;
71836;SDS011;59686;51.716;7.016;2023-05-07T06:10:38;3.88;;;3.58;;
71836;SDS011;59686;51.716;7.016;2023-05-07T06:13:04;3.80;;;3.35;;
71836;SDS011;59686;51.716;7.016;2023-05-07T06:17:58;8.93;;;6.53;;
71836;SDS011;59686;51.716;7.016;2023-05-07T06:20:24;7.53;;;6.80;;
71836;SDS011;59686;51.716;7.016;2023-05-07T06:22:50;7.57;;;6.78;;
71836;SDS011;59686;51.716;7.016;2023-05-07T06:25:17;8.00;;;7.20;;
71836;SDS011;59686;51.716;7.016;2023-05-07T06:27:42;7.63;;;6.93;;
71836;SDS011;59686;51.716;7.016;2023-05-07T06:30:08;7.25;;;6.55;;
71836;SDS011;59686;51.716;7.016;2023-05-07T06:32:34;9.45;;;6.65;;
71836;SDS011;59686;51.716;7.016;2023-05-07T06:35:00;7.78;;;7.07;;
71836;SDS011;59686;51.716;7.016;2023-05-07T06:37:27;7.05;;;6.07;;
71836;SDS011;59686;51.716;7.016;2023-05-07T06:39:53;7.15;;;6.20;;
71836;SDS011;59686;51.716;7.016;2023-05-07T06:42:19;6.85;;;6.20;;
71836;SDS011;59686;51.716;7.016;2023-05-07T06:44:44;6.20;;;5.60;;
71836;SDS011;59686;51.716;7.016;2023-05-07T06:47:10;6.85;;;6.00;;
71836;SDS011;59686;51.716;7.016;2023-05-07T06:49:38;6.57;;;5.80;;
71836;SDS011;59686;51.716;7.016;2023-05-07T06:52:03;6.55;;;5.95;;
71836;SDS011;59686;51.716;7.016;2023-05-07T06:54:29;7.13;;;5.90;;
71836;SDS011;59686;51.716;7.016;2023-05-07T06:56:55;6.75;;;5.57;;
71836;SDS011;59686;51.716;7.016;2023-05-07T06:59:20;5.72;;;5.15;;
71836;SDS011;59686;51.716;7.016;2023-05-07T07:01:46;5.65;;;5.15;;
71836;SDS011;59686;51.716;7.016;2023-05-07T07:04:12;5.93;;;5.32;;
71836;SDS011;59686;51.716;7.016;2023-05-07T07:06:37;6.22;;;5.63;;
71836;SDS011;59686;51.716;7.016;2023-05-07T07:09:03;6.35;;;5.28;;
71836;SDS011;59686;51.716;7.016;2023-05-07T07:11:29;7.25;;;5.90;;
71836;SDS011;59686;51.716;7.016;2023-05-07T07:13:55;6.30;;;4.88;;
71836;SDS011;59686;51.716;7.016;2023-05-07T07:16:21;5.80;;;4.97;;
71836;SDS011;59686;51.716;7.016;2023-05-07T07:18:47;5.97;;;5.30;;
71836;SDS011;59686;51.716;7.016;2023-05-07T07:21:13;5.68;;;5.18;;
71836;SDS011;59686;51.716;7.016;2023-05-07T07:23:38;5.55;;;5.00;;
71836;SDS011;59686;51.716;7.016;2023-05-07T07:26:04;5.78;;;5.25;;
71836;SDS011;59686;51.716;7.016;2023-05-07T07:28:31;5.80;;;5.22;;
71836;SDS011;59686;51.716;7.016;2023-05-07T07:30:56;6.13;;;5.43;;
71836;SDS011;59686;51.716;7.016;2023-05-07T07:33:22;6.28;;;5.18;;
71836;SDS011;59686;51.716;7.016;2023-05-07T07:35:47;8.13;;;5.65;;
71836;SDS011;59686;51.716;7.016;2023-05-07T07:38:13;6.75;;;5.28;;
71836;SDS011;59686;51.716;7.016;2023-05-07T07:40:41;5.78;;;5.22;;
71836;SDS011;59686;51.716;7.016;2023-05-07T07:43:08;5.78;;;5.18;;
71836;SDS011;59686;51.716;7.016;2023-05-07T07:48:05;6.00;;;5.00;;
71836;SDS011;59686;51.716;7.016;2023-05-07T07:50:31;6.10;;;5.50;;
71836;SDS011;59686;51.716;7.016;2023-05-07T07:52:57;6.68;;;5.78;;
71836;SDS011;59686;51.716;7.016;2023-05-07T07:55:22;5.57;;;5.07;;
71836;SDS011;59686;51.716;7.016;2023-05-07T07:57:53;6.05;;;5.30;;
71836;SDS011;59686;51.716;7.016;2023-05-07T08:00:19;8.07;;;5.75;;
71836;SDS011;59686;51.716;7.016;2023-05-07T08:02:45;6.50;;;5.90;;
71836;SDS011;59686;51.716;7.016;2023-05-07T08:05:10;6.70;;;5.45;;
71836;SDS011;59686;51.716;7.016;2023-05-07T08:07:36;6.57;;;5.78;;
71836;SDS011;59686;51.716;7.016;2023-05-07T08:10:02;6.75;;;5.57;;
71836;SDS011;59686;51.716;7.016;2023-05-07T08:12:28;6.47;;;5.72;;
71836;SDS011;59686;51.716;7.016;2023-05-07T08:14:53;6.15;;;5.65;;
71836;SDS011;59686;51.716;7.016;2023-05-07T08:17:20;6.38;;;5.78;;
71836;SDS011;59686;51.716;7.016;2023-05-07T08:19:47;6.00;;;5.50;;
71836;SDS011;59686;51.716;7.016;2023-05-07T08:22:13;6.95;;;5.53;;
71836;SDS011;59686;51.716;7.016;2023-05-07T08:24:39;7.63;;;6.22;;
71836;SDS011;59686;51.716;7.016;2023-05-07T08:27:05;6.90;;;6.20;;
71836;SDS011;59686;51.716;7.016;2023-05-07T08:29:31;8.15;;;6.95;;
71836;SDS011;59686;51.716;7.016;2023-05-07T08:31:56;7.20;;;6.50;;
71836;SDS011;59686;51.716;7.016;2023-05-07T08:34:22;8.38;;;6.95;;
71836;SDS011;59686;51.716;7.016;2023-05-07T08:36:48;7.40;;;6.70;;
71836;SDS011;59686;51.716;7.016;2023-05-07T08:39:14;6.80;;;6.18;;
71836;SDS011;59686;51.716;7.016;2023-05-07T08:41:42;7.70;;;6.90;;
71836;SDS011;59686;51.716;7.016;2023-05-07T08:44:13;9.38;;;7.10;;
71836;SDS011;59686;51.716;7.016;2023-05-07T08:46:40;8.35;;;7.43;;
71836;SDS011;59686;51.716;7.016;2023-05-07T08:49:08;9.07;;;7.88;;
71836;SDS011;59686;51.716;7.016;2023-05-07T08:51:34;8.23;;;6.85;;
71836;SDS011;59686;51.716;7.016;2023-05-07T08:54:01;8.80;;;7.78;;
71836;SDS011;59686;51.716;7.016;2023-05-07T08:56:27;8.77;;;7.30;;
71836;SDS011;59686;51.716;7.016;2023-05-07T08:58:52;8.10;;;7.15;;
71836;SDS011;59686;51.716;7.016;2023-05-07T09:01:21;8.27;;;7.32;;
71836;SDS011;59686;51.716;7.016;2023-05-07T09:03:47;10.05;;;7.85;;
71836;SDS011;59686;51.716;7.016;2023-05-07T09:06:13;7.95;;;7.15;;
71836;SDS011;59686;51.716;7.016;2023-05-07T09:08:39;8.63;;;7.78;;
71836;SDS011;59686;51.716;7.016;2023-05-07T09:11:05;8.10;;;7.30;;
71836;SDS011;59686;51.716;7.016;2023-05-07T09:13:30;8.88;;;7.85;;
71836;SDS011;59686;51.716;7.016;2023-05-07T09:15:56;8.07;;;7.15;;
71836;SDS011;59686;51.716;7.016;2023-05-07T09:18:25;7.80;;;7.10;;
71836;SDS011;59686;51.716;7.016;2023-05-07T09:20:51;8.52;;;7.40;;
71836;SDS011;59686;51.716;7.016;2023-05-07T09:23:16;8.77;;;7.55;;
71836;SDS011;59686;51.716;7.016;2023-05-07T09:25:42;8.05;;;7.22;;
71836;SDS011;59686;51.716;7.016;2023-05-07T09:28:07;8.88;;;7.93;;
71836;SDS011;59686;51.716;7.016;2023-05-07T09:30:35;8.95;;;8.05;;
71836;SDS011;59686;51.716;7.016;2023-05-07T09:33:02;9.02;;;7.60;;
71836;SDS011;59686;51.716;7.016;2023-05-07T09:35:28;8.43;;;7.40;;
71836;SDS011;59686;51.716;7.016;2023-05-07T09:37:55;8.27;;;7.47;;
71836;SDS011;59686;51.716;7.016;2023-05-07T09:43:10;7.93;;;7.13;;
71836;SDS011;59686;51.716;7.016;2023-05-07T09:45:37;8.55;;;7.65;;
71836;SDS011;59686;51.716;7.016;2023-05-07T09:48:04;8.50;;;7.60;;
71836;SDS011;59686;51.716;7.016;2023-05-07T09:50:39;8.77;;;7.95;;
71836;SDS011;59686;51.716;7.016;2023-05-07T09:53:13;8.68;;;7.70;;
71836;SDS011;59686;51.716;7.016;2023-05-07T09:55:41;8.88;;;7.45;;
71836;SDS011;59686;51.716;7.016;2023-05-07T09:58:07;8.30;;;7.13;;
71836;SDS011;59686;51.716;7.016;2023-05-07T10:00:34;9.20;;;8.20;;
71836;SDS011;59686;51.716;7.016;2023-05-07T10:03:01;8.13;;;7.32;;
71836;SDS011;59686;51.716;7.016;2023-05-07T10:05:28;8.52;;;7.63;;
71836;SDS011;59686;51.716;7.016;2023-05-07T10:07:54;9.30;;;8.13;;
71836;SDS011;59686;51.716;7.016;2023-05-07T10:10:21;7.90;;;7.20;;
71836;SDS011;59686;51.716;7.016;2023-05-07T10:12:48;8.13;;;7.43;;
71836;SDS011;59686;51.716;7.016;2023-05-07T10:15:15;8.68;;;7.80;;
71836;SDS011;59686;51.716;7.016;2023-05-07T10:17:42;8.60;;;7.80;;
71836;SDS011;59686;51.716;7.016;2023-05-07T10:20:08;8.68;;;7.88;;
71836;SDS011;59686;51.716;7.016;2023-05-07T10:22:38;8.52;;;7.72;;
71836;SDS011;59686;51.716;7.016;2023-05-07T10:25:12;8.13;;;7.32;;
71836;SDS011;59686;51.716;7.016;2023-05-07T10:27:43;8.35;;;7.55;;
71836;SDS011;59686;51.716;7.016;2023-05-07T10:32:56;8.27;;;7.43;;
71836;SDS011;59686;51.716;7.016;2023-05-07T10:35:31;8.57;;;7.63;;
71836;SDS011;59686;51.716;7.016;2023-05-07T10:38:03;8.27;;;7.45;;
71836;SDS011;59686;51.716;7.016;2023-05-07T10:40:30;8.68;;;7.68;;
71836;SDS011;59686;51.716;7.016;2023-05-07T10:42:56;10.20;;;8.00;;
71836;SDS011;59686;51.716;7.016;2023-05-07T10:45:27;8.75;;;7.95;;
71836;SDS011;59686;51.716;7.016;2023-05-07T10:50:44;8.52;;;7.63;;
71836;SDS011;59686;51.716;7.016;2023-05-07T10:55:43;7.88;;;6.95;;
71836;SDS011;59686;51.716;7.016;2023-05-07T11:00:55;9.00;;;7.38;;
71836;SDS011;59686;51.716;7.016;2023-05-07T11:03:24;7.40;;;6.68;;
71836;SDS011;59686;51.716;7.016;2023-05-07T11:08:55;8.05;;;7.25;;
71836;SDS011;59686;51.716;7.016;2023-05-07T11:14:10;9.90;;;6.93;;
71836;SDS011;59686;51.716;7.016;2023-05-07T11:16:36;8.35;;;7.55;;
71836;SDS011;59686;51.716;7.016;2023-05-07T11:19:03;8.02;;;7.30;;
71836;SDS011;59686;51.716;7.016;2023-05-07T11:24:02;7.90;;;6.15;;
71836;SDS011;59686;51.716;7.016;2023-05-07T11:26:31;9.70;;;7.00;;
71836;SDS011;59686;51.716;7.016;2023-05-07T11:29:12;6.43;;;5.78;;
71836;SDS011;59686;51.716;7.016;2023-05-07T11:31:38;7.30;;;6.15;;
71836;SDS011;59686;51.716;7.016;2023-05-07T11:34:04;6.95;;;6.28;;
71836;SDS011;59686;51.716;7.016;2023-05-07T11:36:32;6.18;;;5.57;;
71836;SDS011;59686;51.716;7.016;2023-05-07T11:38:58;7.03;;;5.90;;
71836;SDS011;59686;51.716;7.016;2023-05-07T11:41:32;6.97;;;5.97;;
71836;SDS011;59686;51.716;7.016;2023-05-07T11:44:02;6.47;;;5.80;;
71836;SDS011;59686;51.716;7.016;2023-05-07T11:46:28;8.63;;;6.03;;
71836;SDS011;59686;51.716;7.016;2023-05-07T11:48:54;6.35;;;5.60;;
71836;SDS011;59686;51.716;7.016;2023-05-07T11:51:21;7.22;;;6.53;;
71836;SDS011;59686;51.716;7.016;2023-05-07T11:53:49;7.88;;;6.35;;
71836;SDS011;59686;51.716;7.016;2023-05-07T11:56:16;7.57;;;6.20;;
71836;SDS011;59686;51.716;7.016;2023-05-07T11:58:43;7.15;;;6.45;;
71836;SDS011;59686;51.716;7.016;2023-05-07T12:01:11;8.98;;;6.65;;
71836;SDS011;59686;51.716;7.016;2023-05-07T12:03:39;7.13;;;6.25;;
71836;SDS011;59686;51.716;7.016;2023-05-07T12:06:09;8.18;;;6.60;;
71836;SDS011;59686;51.716;7.016;2023-05-07T12:08:39;7.57;;;6.22;;
71836;SDS011;59686;51.716;7.016;2023-05-07T12:11:09;7.28;;;6.50;;
71836;SDS011;59686;51.716;7.016;2023-05-07T12:13:40;7.13;;;6.38;;
71836;SDS011;59686;51.716;7.016;2023-05-07T12:16:06;6.55;;;5.78;;
71836;SDS011;59686;51.716;7.016;2023-05-07T12:18:34;6.28;;;5.68;;
71836;SDS011;59686;51.716;7.016;2023-05-07T12:21:01;7.07;;;6.00;;
71836;SDS011;59686;51.716;7.016;2023-05-07T12:23:27;7.95;;;6.55;;
71836;SDS011;59686;51.716;7.016;2023-05-07T12:25:55;7.15;;;6.45;;
71836;SDS011;59686;51.716;7.016;2023-05-07T12:28:20;7.13;;;6.43;;
71836;SDS011;59686;51.716;7.016;2023-05-07T12:30:47;7.82;;;6.30;;
71836;SDS011;59686;51.716;7.016;2023-05-07T12:33:25;6.60;;;5.95;;
71836;SDS011;59686;51.716;7.016;2023-05-07T12:35:53;7.38;;;6.25;;
71836;SDS011;59686;51.716;7.016;2023-05-07T12:38:20;6.75;;;5.78;;
71836;SDS011;59686;51.716;7.016;2023-05-07T12:40:47;7.15;;;6.20;;
71836;SDS011;59686;51.716;7.016;2023-05-07T12:43:26;7.95;;;6.57;;
71836;SDS011;59686;51.716;7.016;2023-05-07T12:45:56;7.20;;;6.10;;
71836;SDS011;59686;51.716;7.016;2023-05-07T12:48:25;7.13;;;6.43;;
71836;SDS011;59686;51.716;7.016;2023-05-07T12:51:02;6.80;;;6.10;;
71836;SDS011;59686;51.716;7.016;2023-05-07T12:53:30;6.97;;;6.25;;
71836;SDS011;59686;51.716;7.016;2023-05-07T12:55:56;11.20;;;6.50;;
71836;SDS011;59686;51.716;7.016;2023-05-07T12:58:30;9.00;;;6.18;;
71836;SDS011;59686;51.716;7.016;2023-05-07T13:00:59;7.07;;;6.25;;
71836;SDS011;59686;51.716;7.016;2023-05-07T13:03:31;6.55;;;5.93;;
71836;SDS011;59686;51.716;7.016;2023-05-07T13:05:59;6.25;;;5.65;;
71836;SDS011;59686;51.716;7.016;2023-05-07T13:08:30;7.93;;;5.72;;
71836;SDS011;59686;51.716;7.016;2023-05-07T13:10:58;6.72;;;5.88;;
71836;SDS011;59686;51.716;7.016;2023-05-07T13:13:25;5.90;;;5.30;;
71836;SDS011;59686;51.716;7.016;2023-05-07T13:15:51;8.00;;;5.45;;
71836;SDS011;59686;51.716;7.016;2023-05-07T13:18:16;5.93;;;5.15;;
71836;SDS011;59686;51.716;7.016;2023-05-07T13:20:42;6.28;;;5.68;;
71836;SDS011;59686;51.716;7.016;2023-05-07T13:23:08;5.80;;;5.13;;
71836;SDS011;59686;51.716;7.016;2023-05-07T13:25:34;6.72;;;5.65;;
71836;SDS011;59686;51.716;7.016;2023-05-07T13:28:00;7.05;;;5.55;;
71836;SDS011;59686;51.716;7.016;2023-05-07T13:30:25;8.35;;;5.45;;
71836;SDS011;59686;51.716;7.016;2023-05-07T13:32:53;6.55;;;5.47;;
71836;SDS011;59686;51.716;7.016;2023-05-07T13:35:32;6.88;;;5.45;;
71836;SDS011;59686;51.716;7.016;2023-05-07T13:37:58;8.10;;;5.93;;
71836;SDS011;59686;51.716;7.016;2023-05-07T13:40:24;6.57;;;5.70;;
71836;SDS011;59686;51.716;7.016;2023-05-07T13:42:50;6.50;;;5.70;;
71836;SDS011;59686;51.716;7.016;2023-05-07T13:45:16;8.93;;;6.85;;
71836;SDS011;59686;51.716;7.016;2023-05-07T13:47:43;10.20;;;6.53;;
71836;SDS011;59686;51.716;7.016;2023-05-07T13:50:09;7.35;;;6.07;;
71836;SDS011;59686;51.716;7.016;2023-05-07T13:52:36;8.98;;;6.15;;
71836;SDS011;59686;51.716;7.016;2023-05-07T13:55:03;9.15;;;6.43;;
71836;SDS011;59686;51.716;7.016;2023-05-07T13:57:29;8.85;;;6.40;;
71836;SDS011;59686;51.716;7.016;2023-05-07T13:59:54;8.23;;;5.97;;
71836;SDS011;59686;51.716;7.016;2023-05-07T14:02:20;10.27;;;6.55;;
71836;SDS011;59686;51.716;7.016;2023-05-07T14:04:46;9.20;;;7.47;;
71836;SDS011;59686;51.716;7.016;2023-05-07T14:07:11;10.18;;;6.88;;
71836;SDS011;59686;51.716;7.016;2023-05-07T14:09:37;11.10;;;6.65;;
71836;SDS011;59686;51.716;7.016;2023-05-07T14:12:03;12.65;;;7.15;;
71836;SDS011;59686;51.716;7.016;2023-05-07T14:14:29;10.98;;;7.03;;
71836;SDS011;59686;51.716;7.016;2023-05-07T14:16:54;12.13;;;6.60;;
71836;SDS011;59686;51.716;7.016;2023-05-07T14:19:20;10.07;;;6.30;;
71836;SDS011;59686;51.716;7.016;2023-05-07T14:21:47;16.67;;;6.18;;
71836;SDS011;59686;51.716;7.016;2023-05-07T14:24:13;12.13;;;6.10;;
71836;SDS011;59686;51.716;7.016;2023-05-07T14:26:39;13.40;;;6.53;;
71836;SDS011;59686;51.716;7.016;2023-05-07T14:29:05;9.77;;;6.20;;
71836;SDS011;59686;51.716;7.016;2023-05-07T14:31:31;10.05;;;6.68;;
71836;SDS011;59686;51.716;7.016;2023-05-07T14:33:57;7.55;;;6.85;;
71836;SDS011;59686;51.716;7.016;2023-05-07T14:36:24;12.23;;;7.63;;
71836;SDS011;59686;51.716;7.016;2023-05-07T14:38:55;22.17;;;8.75;;
71836;SDS011;59686;51.716;7.016;2023-05-07T14:41:22;13.57;;;9.07;;
71836;SDS011;59686;51.716;7.016;2023-05-07T14:43:47;13.68;;;8.70;;
71836;SDS011;59686;51.716;7.016;2023-05-07T14:46:19;14.48;;;9.35;;
71836;SDS011;59686;51.716;7.016;2023-05-07T14:48:45;14.38;;;9.50;;
71836;SDS011;59686;51.716;7.016;2023-05-07T14:51:13;19.52;;;9.82;;
71836;SDS011;59686;51.716;7.016;2023-05-07T14:53:42;18.27;;;9.45;;
71836;SDS011;59686;51.716;7.016;2023-05-07T14:56:09;11.35;;;8.77;;
71836;SDS011;59686;51.716;7.016;2023-05-07T14:58:35;13.13;;;8.55;;
71836;SDS011;59686;51.716;7.016;2023-05-07T15:01:01;10.90;;;8.10;;
71836;SDS011;59686;51.716;7.016;2023-05-07T15:03:27;10.45;;;8.02;;
71836;SDS011;59686;51.716;7.016;2023-05-07T15:05:53;10.48;;;7.63;;
71836;SDS011;59686;51.716;7.016;2023-05-07T15:08:18;8.27;;;7.03;;
71836;SDS011;59686;51.716;7.016;2023-05-07T15:10:44;9.02;;;7.25;;